Tropical Cyclones
[Index]
Main Index Home Page Stock Weather Photos Extreme Storms Discussion Storm News and Storm Chasing Reports Tropical Cyclones / Hurricanes / Typhoons Weather Data and Links Wild Fires / Bushfires Weather Observation Techniques Weather Picture Catalogue Tornado Pictures and Reports Stock Video Footage and DVDs for sale
Season 1971-1972 Tropical Cyclone GAIL Track Map
Season 1971-1972 Summaries: [BoM-AU] [JTWC-AU] [JTWC-SIO] [JTWC-SPAC] [JTWC-SH]
<<- Previous TC | BoM 1971-1972 Season | Next TC ->>

click for intensity scale information  Lat/long Grid: Show Hide

 Date Labels: Show Hide

Bureau of Meteorology Tropical Cyclone Data

Name: GAIL
Number: 496 / 197172_18

11 Apr 1972 02:00 UTC to 17 Apr 1972 23:00 UTC

    date/time    lat    long    hPa   cat  kts
1972-04-11 02   12.8   154.2   1004                     
1972-04-11 05   12.9   154.1   1001                     
1972-04-11 08   13.0   154.1   1000                     
1972-04-11 09   12.9   154.1   1000                     
1972-04-11 11   13.1   154.0   1000                     
1972-04-11 14   13.1   154.0    998                     
1972-04-11 17   13.3   154.0    996                     
1972-04-11 20   13.4   154.0    996                     
1972-04-11 23   13.5   154.1    995    1                
1972-04-12 02   13.6   154.1    994    1                
1972-04-12 05   13.7   154.2    992    1                
1972-04-12 08   13.8   154.3    992    1                
1972-04-12 11   13.8   154.3    992    1                
1972-04-12 14   13.9   154.4    990    1                
1972-04-12 17   13.9   154.5    984    2                
1972-04-12 20   14.0   154.6    980    2                
1972-04-12 23   14.1   154.9    976    2                
1972-04-13 02   14.3   155.2    970    3                
1972-04-13 05   14.4   155.5    965    3                
1972-04-13 08   14.5   155.9    960    3                
1972-04-13 09   14.4   155.9    960    3                
1972-04-13 11   14.5   156.0    960    3                
1972-04-13 14   14.6   156.2    955    4                
1972-04-13 17   15.0   156.5    955    4                
1972-04-13 20   15.4   156.9    950    4                
1972-04-13 23   15.7   157.3    945    4                
1972-04-14 02   16.1   157.6    945    4                
1972-04-14 05   16.4   158.0    945    4                
1972-04-14 08   16.7   158.4    945    4                
1972-04-14 11   16.8   158.8    945    4                
1972-04-14 14   16.9   159.2    945    4                
1972-04-14 17   17.0   159.2    945    4                
1972-04-14 20   17.2   160.3    945    4                
1972-04-14 23   17.3   160.8    945    4                
1972-04-15 02   17.4   161.3    945    4                
1972-04-15 05   17.4   161.7    945    4                
1972-04-15 08   17.5   162.2    945    4                
1972-04-15 10   17.5   162.6    945    4                
1972-04-15 11   17.5   162.6    945    4                
1972-04-15 14   17.5   163.2    945    4                
1972-04-15 17   17.6   163.6    945    4                
1972-04-15 20   17.6   164.2    945    4                
1972-04-15 23   17.6   164.7    945    4                
1972-04-16 02   17.6   165.1    950    4                
1972-04-16 05   17.5   165.5    950    4                
1972-04-16 08   17.5   165.9    955    4                
1972-04-16 11   17.5   166.3    955    4                
1972-04-16 14   17.4   166.7    955    4                
1972-04-16 17   17.3   167.1    955    4                
1972-04-16 20   17.3   167.5    955    4                
1972-04-16 23   17.3   167.9    955    4                
1972-04-17 02   17.4   168.4    960    3                
1972-04-17 05   17.5   168.8    965    3                
1972-04-17 08   17.6   169.3    970    3                
1972-04-17 11   17.3   169.7    975    2                
1972-04-17 14   17.2   169.9    980    2                
1972-04-17 17   16.9   170.0    985    2                
1972-04-17 20   16.5   170.1    985    2                
1972-04-17 23   16.3   170.0    985    2                
Winds are 10-min average.

Tropical cyclone tracks developed by Michael Bath using data from the Bureau of Meteorology and Google Maps.


[Australian Severe Weather index] [Copyright Notice] [Email Contacts] [Search This Site] [Privacy Policy]
Document: tropical_cyclone_gail.htm Updated: 30 May 2013